Diretta Meteo Portoroz, Sloveniasabato 20 luglio ore 15:30

Mappa
Sereno 30 °C Sereno 24 Ore: T.min 16 T.max 30
Ponente Ovest/Sud-Ovest Km/h 11.1 Punto di rugiada: 16 °C Umidità: 42% Visibilità: 10 Km
Il sole sorge alle: 05:34 Il sole tramonta alle: 20:49
20 Luglio 2019 15:30 tempo osservato: Sereno Sereno 30 42 1017 vento: Nord O/SO 11.1
20 Luglio 2019 15:00 tempo osservato: Sereno Sereno 30 37 1018 vento: Nord O/SO 7.4
20 Luglio 2019 14:30 tempo osservato: Sereno Sereno 30 37 1018 vento: Nord O/SO 11.1
20 Luglio 2019 14:00 tempo osservato: Sereno Sereno 30 37 1018 vento: Nord O/SO 11.1
20 Luglio 2019 13:30 tempo osservato: Sereno Sereno 30 37 1018 vento: Nord O 11.1
20 Luglio 2019 13:00 tempo osservato: Sereno Sereno 29 51 1018 vento: Nord N/NO 11.1
20 Luglio 2019 12:30 tempo osservato: Sereno Sereno 28 51 1018 vento: Nord N/NO 11.1
20 Luglio 2019 12:00 tempo osservato: Sereno Sereno 28 48 1018 vento: Nord N/NO 9.3
20 Luglio 2019 11:30 tempo osservato: Sereno Sereno 27 57 1018 vento: Nord N/NO 11.1
20 Luglio 2019 11:00 tempo osservato: Sereno Sereno 27 57 1018 vento: Nord NO 11.1
20 Luglio 2019 10:30 tempo osservato: Sereno Sereno 26 54 1018 vento: Nord NO 13
20 Luglio 2019 10:00 tempo osservato: Sereno Sereno 27 47 1017 vento: Nord O/NO 7.4
20 Luglio 2019 09:30 tempo osservato: Sereno Sereno 27 54 1017 vento: Nord N 3.7
20 Luglio 2019 09:00 tempo osservato: Sereno Sereno 25 53 1017 vento: Nord N 5.5
20 Luglio 2019 08:30 tempo osservato: Sereno Sereno 23 64 1017 vento: Nord SE 7.4
20 Luglio 2019 08:00 tempo osservato: Sereno Sereno 21 64 1017 vento: Nord E/SE 9.3
20 Luglio 2019 07:30 tempo osservato: Sereno Sereno 20 68 1017 vento: Nord E/SE 13
20 Luglio 2019 07:00 tempo osservato: Sereno Sereno 18 77 1017 vento: Nord E/SE 14.8
20 Luglio 2019 06:30 tempo osservato: Sereno Sereno 17 77 1017 vento: Nord E/SE 14.8
20 Luglio 2019 06:00 tempo osservato: Sereno Sereno 17 77 1017 vento: Nord SE 16.7
20 Luglio 2019 05:30 tempo osservato: Sereno Sereno 17 72 1016 vento: Nord E/SE 16.7
20 Luglio 2019 05:00 tempo osservato: Sereno Sereno 16 82 1017 vento: Nord E/SE 13
20 Luglio 2019 04:30 tempo osservato: Sereno Sereno 17 77 1017 vento: Nord E/SE 13
20 Luglio 2019 04:00 tempo osservato: Sereno Sereno 17 77 1016 vento: Nord E/SE 11.1
20 Luglio 2019 03:00 tempo osservato: Sereno Sereno 17 82 1017 vento: Nord E/SE 11.1
20 Luglio 2019 02:30 tempo osservato: Sereno Sereno 17 82 1017 vento: Nord E/SE 11.1
20 Luglio 2019 02:00 tempo osservato: Sereno Sereno 18 77 1017 vento: Nord SE 14.8
20 Luglio 2019 01:30 tempo osservato: Sereno Sereno 18 82 1017 vento: Nord E/SE 13
20 Luglio 2019 01:00 tempo osservato: Sereno Sereno 18 82 1017 vento: Nord SE 13
20 Luglio 2019 00:30 tempo osservato: Sereno Sereno 19 77 1017 vento: Nord SE 13
20 Luglio 2019 00:00 tempo osservato: Sereno Sereno 19 77 1017 vento: Nord SE 13
19 Luglio 2019 23:00 tempo osservato: Sereno Sereno 20 77 1016 vento: Nord E/SE 11.1
19 Luglio 2019 22:30 tempo osservato: Sereno Sereno 21 73 1016 vento: Nord SE 9.3
19 Luglio 2019 22:00 tempo osservato: Sereno Sereno 22 68 1016 vento: Nord E/SE 13
19 Luglio 2019 21:30 tempo osservato: Sereno Sereno 22 68 1016 vento: Nord E/SE 9.3
19 Luglio 2019 21:00 tempo osservato: Sereno Sereno 24 60 1015 vento: Nord N 3.7
19 Luglio 2019 20:30 tempo osservato: Sereno Sereno 25 57 1015 vento: Nord N 5.5
19 Luglio 2019 20:00 tempo osservato: Sereno Sereno 27 50 1015 vento: Nord N 5.5
19 Luglio 2019 19:30 tempo osservato: Sereno Sereno 29 42 1015 vento: Nord N 3.7
19 Luglio 2019 19:00 tempo osservato: Sereno Sereno 28 45 1015 vento: Nord N 5.5
19 Luglio 2019 18:30 tempo osservato: Sereno Sereno 29 45 1015 vento: Nord N 5.5
19 Luglio 2019 18:00 tempo osservato: Sereno Sereno 29 45 1015 vento: Nord O 7.4
19 Luglio 2019 17:30 tempo osservato: Sereno Sereno 29 45 1015 vento: Nord O 11.1
19 Luglio 2019 17:00 tempo osservato: Sereno Sereno 29 45 1015 vento: Nord O 11.1